createdAt,value
2023-04-22T00:00:20.284Z,3.40
2023-04-22T00:01:24.039Z,3.70
2023-04-22T00:02:26.986Z,3.50
2023-04-22T00:03:29.727Z,4.09
2023-04-22T00:04:35.442Z,2.60
2023-04-22T00:05:39.301Z,2.00
2023-04-22T00:06:42.646Z,3.50
2023-04-22T00:07:47.552Z,3.80
2023-04-22T00:08:52.864Z,4.00
2023-04-22T00:09:57.090Z,2.90
2023-04-22T00:11:00.400Z,3.50
2023-04-22T00:12:03.889Z,4.30
2023-04-22T00:13:07.382Z,3.90
2023-04-22T00:14:11.420Z,3.30
2023-04-22T00:15:16.566Z,3.00
2023-04-22T00:16:20.535Z,4.00
2023-04-22T00:17:24.980Z,2.90
2023-04-22T00:18:27.759Z,3.10
2023-04-22T00:19:30.391Z,3.55
2023-04-22T00:20:33.052Z,3.50
2023-04-22T00:21:36.027Z,3.60
2023-04-22T00:22:38.754Z,3.55
2023-04-22T00:23:41.310Z,3.90
2023-04-22T00:24:44.642Z,4.30
2023-04-22T00:25:48.847Z,3.80
2023-04-22T00:26:52.465Z,4.00
2023-04-22T00:28:08.600Z,3.18
2023-04-22T00:29:12.346Z,2.80
2023-04-22T00:30:17.864Z,4.00
2023-04-22T00:31:20.720Z,4.30
2023-04-22T00:32:23.790Z,0.00
2023-04-22T00:33:26.905Z,3.70
2023-04-22T00:34:30.550Z,4.00
2023-04-22T00:35:33.080Z,4.00
2023-04-22T00:36:36.411Z,3.80
2023-04-22T00:37:41.216Z,1.10
2023-04-22T00:40:02.835Z,2.60
2023-04-22T00:41:07.933Z,3.30
2023-04-22T00:42:14.962Z,4.40
2023-04-22T00:43:18.618Z,4.00
2023-04-22T00:44:22.260Z,4.60
2023-04-22T00:45:24.839Z,4.20
2023-04-22T00:46:28.356Z,4.60
2023-04-22T00:47:32.675Z,4.00
2023-04-22T00:48:48.925Z,4.50
2023-04-22T00:49:53.675Z,4.30
2023-04-22T00:50:56.706Z,5.00
2023-04-22T00:51:59.437Z,3.60
2023-04-22T00:53:03.502Z,4.00
2023-04-22T00:54:07.206Z,4.20
2023-04-22T00:55:11.373Z,3.73
2023-04-22T00:56:16.553Z,3.70
2023-04-22T00:57:21.026Z,4.80
2023-04-22T00:58:25.773Z,4.00
2023-04-22T00:59:29.316Z,3.40
2023-04-22T01:00:34.268Z,4.60
2023-04-22T01:01:37.265Z,4.00
2023-04-22T01:02:42.291Z,3.82
2023-04-22T01:03:45.144Z,4.50
2023-04-22T01:04:48.157Z,2.90
2023-04-22T01:05:50.882Z,4.45
2023-04-22T01:06:54.281Z,3.60
2023-04-22T01:07:57.854Z,3.70
2023-04-22T01:09:00.768Z,3.67
2023-04-22T01:10:05.548Z,3.70
2023-04-22T01:11:08.351Z,3.40
2023-04-22T01:12:11.651Z,4.20
2023-04-22T01:13:14.362Z,3.70
2023-04-22T01:14:17.179Z,3.73
2023-04-22T01:15:21.337Z,4.27
2023-04-22T01:16:24.200Z,4.40
2023-04-22T01:17:28.040Z,4.40
2023-04-22T01:18:32.086Z,4.10
2023-04-22T01:19:35.505Z,4.30
2023-04-22T01:20:39.317Z,4.20
2023-04-22T01:21:45.272Z,4.00
2023-04-22T01:22:49.787Z,3.10
2023-04-22T01:23:53.142Z,4.00
2023-04-22T01:24:56.327Z,3.30
2023-04-22T01:25:59.364Z,1.80
2023-04-22T01:27:02.167Z,3.60
2023-04-22T01:28:06.513Z,3.00
2023-04-22T01:29:10.104Z,2.30
2023-04-22T01:30:15.192Z,4.70
2023-04-22T01:31:18.905Z,3.10
2023-04-22T01:32:22.135Z,3.60
2023-04-22T01:33:27.539Z,1.80
2023-04-22T01:34:31.573Z,3.90
2023-04-22T01:35:36.418Z,4.70
2023-04-22T01:36:40.163Z,4.60
2023-04-22T01:37:43.627Z,4.60
2023-04-22T01:38:47.853Z,3.90
2023-04-22T01:39:50.552Z,3.60
2023-04-22T01:40:54.064Z,3.50
2023-04-22T01:41:57.889Z,2.70
2023-04-22T01:43:00.820Z,4.20
2023-04-22T01:44:05.294Z,3.60
2023-04-22T01:45:10.991Z,2.80
2023-04-22T01:46:16.645Z,4.00
2023-04-22T01:47:21.114Z,4.00
2023-04-22T01:48:24.417Z,3.30
2023-04-22T01:49:28.774Z,4.30
2023-04-22T01:50:31.583Z,3.90
2023-04-22T01:51:36.993Z,5.00
2023-04-22T01:52:41.397Z,4.10
2023-04-22T01:53:46.615Z,4.70
2023-04-22T01:54:51.709Z,3.70
2023-04-22T01:55:54.446Z,3.90
2023-04-22T01:56:57.971Z,4.27
2023-04-22T01:58:03.191Z,3.90
2023-04-22T01:59:07.294Z,4.60
2023-04-22T02:00:12.427Z,3.20
2023-04-22T02:01:14.970Z,4.40
2023-04-22T02:02:18.383Z,4.36
2023-04-22T02:03:22.404Z,3.80
2023-04-22T02:04:25.525Z,3.90
2023-04-22T02:05:28.382Z,3.70
2023-04-22T02:06:31.899Z,3.91
2023-04-22T02:07:35.791Z,3.70
2023-04-22T02:08:38.412Z,4.20
2023-04-22T02:09:41.491Z,4.00
2023-04-22T02:10:45.716Z,0.40
2023-04-22T02:11:50.076Z,3.90
2023-04-22T02:12:55.454Z,3.30
2023-04-22T02:13:58.303Z,3.10
2023-04-22T02:15:02.029Z,4.20
2023-04-22T02:16:05.868Z,3.80
2023-04-22T02:17:09.181Z,4.80
2023-04-22T02:18:12.848Z,3.80
2023-04-22T02:19:17.800Z,4.10
2023-04-22T02:20:21.406Z,4.00
2023-04-22T02:21:24.953Z,3.20
2023-04-22T02:22:30.334Z,3.70
2023-04-22T02:23:33.606Z,3.10
2023-04-22T02:24:37.091Z,3.80
2023-04-22T02:25:40.237Z,1.73
2023-04-22T02:26:43.096Z,4.10
2023-04-22T02:27:45.888Z,4.40
2023-04-22T02:28:50.490Z,3.20
2023-04-22T02:29:54.917Z,2.60
2023-04-22T02:30:58.658Z,5.00
2023-04-22T02:32:02.197Z,4.10
2023-04-22T02:33:06.974Z,3.90
2023-04-22T02:34:09.852Z,3.40
2023-04-22T02:35:13.468Z,3.90
2023-04-22T02:36:17.720Z,3.00
2023-04-22T02:37:22.585Z,4.00
2023-04-22T02:38:26.349Z,4.00
2023-04-22T02:39:30.476Z,4.10
2023-04-22T02:40:33.680Z,4.10
2023-04-22T02:41:36.677Z,3.18
2023-04-22T02:42:39.714Z,3.64
2023-04-22T02:43:45.085Z,2.10
2023-04-22T02:44:47.989Z,3.60
2023-04-22T02:45:51.026Z,4.27
2023-04-22T02:46:54.031Z,3.40
2023-04-22T02:47:58.262Z,3.70
2023-04-22T02:49:01.041Z,3.80
2023-04-22T02:50:05.004Z,4.09
2023-04-22T02:51:08.251Z,3.90
2023-04-22T02:52:13.019Z,3.80
2023-04-22T02:53:16.399Z,4.40
2023-04-22T02:54:19.830Z,3.60
2023-04-22T02:55:24.007Z,2.60
2023-04-22T02:56:28.717Z,3.40
2023-04-22T02:57:31.511Z,3.70
2023-04-22T02:58:34.732Z,5.10
2023-04-22T02:59:37.802Z,4.00
2023-04-22T03:00:43.022Z,3.80
2023-04-22T03:01:47.100Z,3.80
2023-04-22T03:02:52.038Z,3.90
2023-04-22T03:03:57.150Z,3.70
2023-04-22T03:05:00.395Z,2.50
2023-04-22T03:07:18.374Z,4.00
2023-04-22T03:08:22.757Z,3.20
2023-04-22T03:09:25.347Z,3.30
2023-04-22T03:10:28.745Z,3.20
2023-04-22T03:11:32.279Z,3.00
2023-04-22T03:12:35.232Z,4.00
2023-04-22T03:13:39.424Z,4.80
2023-04-22T03:14:42.290Z,5.10
2023-04-22T03:15:46.206Z,3.90
2023-04-22T03:16:50.929Z,4.40
2023-04-22T03:17:54.086Z,4.60
2023-04-22T03:18:58.441Z,4.40
2023-04-22T03:20:02.467Z,4.10
2023-04-22T03:21:07.976Z,4.80
2023-04-22T03:22:11.643Z,5.20
2023-04-22T03:23:14.876Z,4.80
2023-04-22T03:24:18.390Z,4.50
2023-04-22T03:25:23.750Z,4.30
2023-04-22T03:26:30.029Z,4.70
2023-04-22T03:27:33.186Z,5.50
2023-04-22T03:28:36.571Z,3.60
2023-04-22T03:29:40.303Z,4.60
2023-04-22T03:30:43.468Z,4.50
2023-04-22T03:31:46.304Z,4.55
2023-04-22T03:32:52.335Z,4.50
2023-04-22T03:33:57.290Z,4.20
2023-04-22T03:35:02.246Z,5.00
2023-04-22T03:36:08.186Z,4.00
2023-04-22T03:37:12.697Z,3.90
2023-04-22T03:38:16.713Z,1.80
2023-04-22T03:39:21.127Z,4.30
2023-04-22T03:40:25.813Z,4.00
2023-04-22T03:41:29.909Z,4.80
2023-04-22T03:42:33.074Z,4.40
2023-04-22T03:43:37.361Z,4.50
2023-04-22T03:44:43.884Z,4.00
2023-04-22T03:45:47.218Z,4.80
2023-04-22T03:48:08.239Z,3.90
2023-04-22T03:49:14.707Z,3.70
2023-04-22T03:50:19.212Z,4.90
2023-04-22T03:51:22.447Z,3.80
2023-04-22T03:52:29.582Z,4.10
2023-04-22T03:53:35.620Z,3.80
2023-04-22T03:54:38.534Z,4.20
2023-04-22T03:55:42.458Z,4.90
2023-04-22T03:56:47.435Z,5.00
2023-04-22T03:57:51.670Z,4.70
2023-04-22T03:58:56.131Z,4.60
2023-04-22T04:00:00.606Z,5.50
2023-04-22T04:01:03.741Z,4.10
2023-04-22T04:03:20.863Z,3.60
2023-04-22T04:04:27.694Z,4.20
2023-04-22T04:05:32.793Z,3.80
2023-04-22T04:06:37.128Z,4.00
2023-04-22T04:07:40.531Z,3.90
2023-04-22T04:08:43.216Z,4.00
2023-04-22T04:09:49.584Z,4.40
2023-04-22T04:10:54.822Z,4.80
2023-04-22T04:11:59.458Z,3.70
2023-04-22T04:13:04.224Z,3.90
2023-04-22T04:14:10.548Z,4.50
2023-04-22T04:15:17.985Z,4.90
2023-04-22T04:16:22.978Z,5.10
2023-04-22T04:17:28.299Z,3.50
2023-04-22T04:18:32.092Z,4.20
2023-04-22T04:19:36.892Z,3.90
2023-04-22T04:20:40.805Z,4.60
2023-04-22T04:21:45.774Z,5.40
2023-04-22T04:22:50.180Z,4.90
2023-04-22T04:23:53.545Z,5.20
2023-04-22T04:24:58.136Z,5.40
2023-04-22T04:26:05.274Z,6.60
2023-04-22T04:27:09.425Z,6.20
2023-04-22T04:29:26.484Z,6.10
2023-04-22T04:30:33.646Z,6.80
2023-04-22T04:31:38.389Z,7.50
2023-04-22T04:32:42.417Z,7.20
2023-04-22T04:33:47.833Z,7.40
2023-04-22T04:34:52.031Z,7.30
2023-04-22T04:35:55.832Z,7.20
2023-04-22T04:37:01.978Z,6.30
2023-04-22T04:38:06.811Z,7.80
2023-04-22T04:39:10.940Z,8.10
2023-04-22T04:40:14.772Z,7.30
2023-04-22T04:41:28.096Z,9.30
2023-04-22T04:42:32.898Z,7.60
2023-04-22T04:43:38.170Z,7.60
2023-04-22T04:44:50.413Z,9.10
2023-04-22T04:45:55.722Z,9.70
2023-04-22T04:47:00.578Z,9.20
2023-04-22T04:48:04.985Z,10.55
2023-04-22T04:50:23.608Z,11.00
2023-04-22T04:51:26.384Z,11.10
2023-04-22T04:52:31.251Z,10.80
2023-04-22T04:53:34.587Z,12.20
2023-04-22T04:54:39.778Z,10.80
2023-04-22T04:55:42.501Z,11.90
2023-04-22T04:56:53.447Z,13.60
2023-04-22T04:57:56.272Z,12.00
2023-04-22T04:58:59.495Z,12.73
2023-04-22T05:00:05.060Z,13.10
2023-04-22T05:02:20.341Z,11.40
2023-04-22T05:03:24.094Z,12.00
2023-04-22T05:04:27.385Z,13.20
2023-04-22T05:05:30.517Z,12.70
2023-04-22T05:06:34.106Z,12.70
2023-04-22T05:07:38.727Z,13.20
2023-04-22T05:08:42.238Z,12.20
2023-04-22T05:09:46.411Z,12.50
2023-04-22T05:10:51.586Z,13.30
2023-04-22T05:11:55.857Z,14.20
2023-04-22T05:13:03.450Z,14.30
2023-04-22T05:14:06.256Z,13.30
2023-04-22T05:15:11.623Z,13.40
2023-04-22T05:16:14.984Z,13.50
2023-04-22T05:17:18.291Z,12.30
2023-04-22T05:18:22.091Z,13.40
2023-04-22T05:19:25.670Z,13.20
2023-04-22T05:20:31.606Z,13.10
2023-04-22T05:21:35.809Z,15.00
2023-04-22T05:23:56.342Z,13.40
2023-04-22T05:25:01.882Z,10.80
2023-04-22T05:26:04.867Z,13.60
2023-04-22T05:27:09.182Z,12.90
2023-04-22T05:28:13.029Z,14.40
2023-04-22T05:29:23.536Z,13.20
2023-04-22T05:30:26.854Z,13.36
2023-04-22T05:31:31.558Z,14.90
2023-04-22T05:32:36.055Z,13.80
2023-04-22T05:33:40.062Z,13.90
2023-04-22T05:34:45.953Z,14.20
2023-04-22T05:35:50.899Z,15.10
2023-04-22T05:36:53.708Z,15.80
2023-04-22T05:37:57.670Z,13.60
2023-04-22T05:39:01.264Z,17.60
2023-04-22T05:40:06.277Z,15.40
2023-04-22T05:41:11.463Z,15.10
2023-04-22T05:42:14.416Z,14.80
2023-04-22T05:43:17.259Z,13.27
2023-04-22T05:44:23.000Z,13.50
2023-04-22T05:45:27.386Z,14.80
2023-04-22T05:46:30.670Z,13.00
2023-04-22T05:47:34.691Z,14.30
2023-04-22T05:48:39.701Z,15.90
2023-04-22T05:49:45.233Z,14.50
2023-04-22T05:50:51.123Z,15.30
2023-04-22T05:51:54.848Z,15.90
2023-04-22T05:52:59.686Z,15.70
2023-04-22T05:54:05.277Z,13.30
2023-04-22T05:55:09.335Z,14.40
2023-04-22T05:56:13.874Z,15.30
2023-04-22T05:57:19.148Z,14.60
2023-04-22T05:58:23.597Z,14.40
2023-04-22T05:59:28.784Z,14.70
2023-04-22T06:00:32.070Z,13.00
2023-04-22T06:01:38.894Z,11.40
2023-04-22T06:02:44.683Z,15.10
2023-04-22T06:03:48.990Z,14.60
2023-04-22T06:04:53.739Z,15.60
2023-04-22T06:05:58.259Z,15.30
2023-04-22T06:07:01.119Z,13.40
2023-04-22T06:08:04.919Z,15.36
2023-04-22T06:09:08.044Z,15.20
2023-04-22T06:10:13.129Z,16.40
2023-04-22T06:11:15.842Z,12.90
2023-04-22T06:12:18.930Z,13.80
2023-04-22T06:13:21.876Z,13.00
2023-04-22T06:14:24.904Z,12.80
2023-04-22T06:15:28.341Z,14.40
2023-04-22T06:16:31.778Z,14.80
2023-04-22T06:17:34.943Z,14.20
2023-04-22T06:18:38.846Z,14.70
2023-04-22T06:19:45.854Z,13.80
2023-04-22T06:20:49.738Z,12.90
2023-04-22T06:21:53.072Z,12.70
2023-04-22T06:22:56.941Z,11.60
2023-04-22T06:24:12.897Z,14.20
2023-04-22T06:25:17.715Z,13.50
2023-04-22T06:26:20.410Z,12.50
2023-04-22T06:27:23.178Z,11.20
2023-04-22T06:28:26.150Z,11.70
2023-04-22T06:29:30.451Z,13.90
2023-04-22T06:30:33.359Z,13.10
2023-04-22T06:31:37.290Z,11.80
2023-04-22T06:32:40.985Z,12.50
2023-04-22T06:33:43.785Z,12.70
2023-04-22T06:34:47.100Z,14.30
2023-04-22T06:35:51.470Z,14.00
2023-04-22T06:36:54.853Z,13.90
2023-04-22T06:37:59.019Z,11.70
2023-04-22T06:39:05.102Z,14.80
2023-04-22T06:40:26.515Z,13.20
2023-04-22T06:41:43.998Z,13.50
2023-04-22T06:42:48.703Z,12.80
2023-04-22T06:43:54.076Z,13.10
2023-04-22T06:45:14.901Z,11.50
2023-04-22T06:46:19.693Z,14.30
2023-04-22T06:47:26.999Z,14.20
2023-04-22T06:48:38.405Z,13.00
2023-04-22T06:50:01.875Z,13.90
2023-04-22T06:51:07.062Z,14.60
2023-04-22T06:52:10.342Z,12.80
2023-04-22T06:53:14.407Z,13.10
2023-04-22T06:54:19.122Z,13.90
2023-04-22T06:55:22.764Z,13.90
2023-04-22T06:56:25.892Z,13.36
2023-04-22T06:57:29.948Z,13.00
2023-04-22T06:58:33.883Z,13.40
2023-04-22T06:59:39.557Z,12.40
2023-04-22T07:00:44.103Z,12.60
2023-04-22T07:01:47.627Z,10.80
2023-04-22T07:02:53.462Z,14.60
2023-04-22T07:03:57.368Z,11.50
2023-04-22T07:05:03.287Z,12.50
2023-04-22T07:06:07.754Z,11.40
2023-04-22T07:07:12.031Z,12.40
2023-04-22T07:08:17.227Z,12.10
2023-04-22T07:09:21.325Z,12.00
2023-04-22T07:10:25.794Z,12.00
2023-04-22T07:11:35.363Z,13.20
2023-04-22T07:12:46.252Z,13.90
2023-04-22T07:13:50.591Z,11.90
2023-04-22T07:14:54.718Z,11.30
2023-04-22T07:15:58.904Z,11.10
2023-04-22T07:17:02.436Z,10.20
2023-04-22T07:18:05.375Z,13.10
2023-04-22T07:19:09.246Z,12.64
2023-04-22T07:20:13.084Z,14.80
2023-04-22T07:21:16.378Z,10.90
2023-04-22T07:22:21.893Z,13.50
2023-04-22T07:23:24.603Z,12.50
2023-04-22T07:24:27.069Z,13.00
2023-04-22T07:25:30.104Z,11.10
2023-04-22T07:26:34.328Z,11.80
2023-04-22T07:27:39.644Z,13.30
2023-04-22T07:28:42.474Z,12.90
2023-04-22T07:29:47.216Z,12.90
2023-04-22T07:30:51.722Z,13.00
2023-04-22T07:31:55.477Z,7.90
2023-04-22T07:32:59.748Z,14.50
2023-04-22T07:34:03.612Z,10.40
2023-04-22T07:35:08.241Z,13.50
2023-04-22T07:36:11.625Z,12.30
2023-04-22T07:37:14.591Z,12.90
2023-04-22T07:38:18.635Z,12.40
2023-04-22T07:39:22.611Z,13.70
2023-04-22T07:40:26.066Z,13.90
2023-04-22T07:41:31.746Z,13.80
2023-04-22T07:42:34.481Z,13.20
2023-04-22T07:43:37.291Z,12.73
2023-04-22T07:44:42.364Z,13.60
2023-04-22T07:45:45.747Z,13.30
2023-04-22T07:46:50.378Z,12.60
2023-04-22T07:47:53.426Z,11.00
2023-04-22T07:48:56.963Z,13.00
2023-04-22T07:50:01.457Z,12.50
2023-04-22T07:51:04.863Z,12.40
2023-04-22T07:52:09.932Z,12.20
2023-04-22T07:53:15.244Z,11.90
2023-04-22T07:54:19.319Z,13.40
2023-04-22T07:55:22.038Z,11.30
2023-04-22T07:56:27.772Z,13.20
2023-04-22T07:57:32.190Z,12.70
2023-04-22T07:58:34.959Z,11.40
2023-04-22T07:59:38.991Z,13.30
2023-04-22T08:00:41.973Z,13.70
2023-04-22T08:01:46.124Z,12.30
2023-04-22T08:02:48.707Z,11.50
2023-04-22T08:03:53.607Z,14.00
2023-04-22T08:04:57.564Z,11.00
2023-04-22T08:06:01.242Z,12.00
2023-04-22T08:07:17.072Z,12.70
2023-04-22T08:08:09.146Z,12.50
2023-04-22T08:09:13.114Z,12.10
2023-04-22T08:10:18.544Z,11.60
2023-04-22T08:11:29.511Z,12.60
2023-04-22T08:12:33.159Z,12.70
2023-04-22T08:13:37.786Z,12.70
2023-04-22T08:14:41.613Z,12.50
2023-04-22T08:15:44.290Z,14.70
2023-04-22T08:16:47.141Z,13.36
2023-04-22T08:17:59.166Z,13.90
2023-04-22T08:19:01.866Z,12.70
2023-04-22T08:20:07.897Z,12.82
2023-04-22T08:21:12.994Z,12.50
2023-04-22T08:22:17.324Z,11.90
2023-04-22T08:23:21.375Z,13.60
2023-04-22T08:24:24.188Z,12.90
2023-04-22T08:25:27.508Z,13.70
2023-04-22T08:26:30.192Z,12.70
2023-04-22T08:27:33.288Z,12.91
2023-04-22T08:28:37.503Z,12.30
2023-04-22T08:29:41.511Z,14.30
2023-04-22T08:30:45.725Z,14.10
2023-04-22T08:31:48.317Z,14.80
2023-04-22T08:32:54.038Z,13.10
2023-04-22T08:33:58.110Z,12.30
2023-04-22T08:35:05.186Z,12.70
2023-04-22T08:36:10.594Z,13.60
2023-04-22T08:37:16.677Z,12.40
2023-04-22T08:38:21.054Z,11.20
2023-04-22T08:39:27.130Z,13.40
2023-04-22T08:40:30.681Z,12.40
2023-04-22T08:41:34.719Z,14.10
2023-04-22T08:42:38.421Z,12.60
2023-04-22T08:43:56.096Z,13.10
2023-04-22T08:44:58.768Z,13.10
2023-04-22T08:46:02.251Z,10.10
2023-04-22T08:47:05.569Z,13.40
2023-04-22T08:48:10.843Z,12.40
2023-04-22T08:49:14.730Z,10.50
2023-04-22T08:50:17.963Z,11.30
2023-04-22T08:51:21.277Z,11.20
2023-04-22T08:52:24.702Z,13.40
2023-04-22T08:53:27.461Z,13.00
2023-04-22T08:54:33.855Z,11.60
2023-04-22T08:55:38.855Z,10.20
2023-04-22T08:56:44.861Z,12.10
2023-04-22T08:57:48.322Z,13.70
2023-04-22T08:58:50.922Z,11.80
2023-04-22T08:59:55.096Z,12.20
2023-04-22T09:00:58.943Z,10.50
2023-04-22T09:02:02.166Z,12.70
2023-04-22T09:03:06.619Z,13.30
2023-04-22T09:04:10.861Z,13.30
2023-04-22T09:05:14.889Z,9.50
2023-04-22T09:06:18.706Z,12.10
2023-04-22T09:08:38.706Z,12.30
2023-04-22T09:09:42.314Z,14.20
2023-04-22T09:10:45.170Z,13.60
2023-04-22T09:11:47.878Z,13.64
2023-04-22T09:12:52.656Z,12.20
2023-04-22T09:13:55.491Z,14.10
2023-04-22T09:14:58.566Z,14.00
2023-04-22T09:16:02.482Z,12.40
2023-04-22T09:17:06.403Z,13.70
2023-04-22T09:18:10.682Z,12.40
2023-04-22T09:20:28.418Z,13.00
2023-04-22T09:21:32.691Z,11.80
2023-04-22T09:22:43.978Z,14.00
2023-04-22T09:23:52.458Z,11.80
2023-04-22T09:25:04.222Z,11.80
2023-04-22T09:26:07.854Z,11.70
2023-04-22T09:27:11.746Z,11.80
2023-04-22T09:28:19.285Z,13.10
2023-04-22T09:29:23.249Z,13.70
2023-04-22T09:30:33.922Z,13.50
2023-04-22T09:31:38.266Z,12.80
2023-04-22T09:32:41.563Z,12.30
2023-04-22T09:35:07.973Z,11.70
2023-04-22T09:36:14.172Z,12.60
2023-04-22T09:37:33.303Z,11.40
2023-04-22T09:38:37.071Z,12.60
2023-04-22T09:39:42.796Z,12.50
2023-04-22T09:40:46.746Z,11.60
2023-04-22T09:43:02.575Z,13.20
2023-04-22T09:45:34.581Z,11.90
2023-04-22T09:46:38.652Z,13.20
2023-04-22T09:47:42.214Z,10.70
2023-04-22T09:49:59.847Z,5.40
2023-04-22T09:51:03.059Z,13.10
2023-04-22T09:52:05.849Z,12.90
2023-04-22T09:53:10.788Z,11.27
2023-04-22T09:54:15.638Z,10.00
2023-04-22T09:56:48.864Z,11.50
2023-04-22T09:57:53.987Z,11.90
2023-04-22T09:58:56.459Z,14.50
2023-04-22T09:59:59.615Z,14.70
2023-04-22T10:02:28.841Z,15.80
2023-04-22T10:06:28.156Z,21.60
2023-04-22T10:09:00.129Z,20.20
2023-04-22T10:10:06.038Z,21.20
2023-04-22T10:11:09.332Z,20.30
2023-04-22T10:12:12.166Z,21.10
2023-04-22T10:13:16.048Z,19.73
2023-04-22T10:14:22.533Z,19.80
2023-04-22T10:16:57.141Z,20.40
2023-04-22T10:18:00.087Z,19.90
2023-04-22T10:19:04.890Z,18.30
2023-04-22T10:20:13.031Z,19.80
2023-04-22T10:21:16.729Z,18.70
2023-04-22T10:22:20.449Z,17.10
2023-04-22T10:23:24.580Z,20.40
2023-04-22T10:24:28.875Z,17.90
2023-04-22T10:25:32.345Z,17.56
2023-04-22T10:26:42.291Z,18.30
2023-04-22T10:28:58.263Z,18.10
2023-04-22T10:30:01.910Z,16.20
2023-04-22T10:31:21.031Z,16.20
2023-04-22T10:32:26.350Z,17.50
2023-04-22T10:34:49.498Z,17.30
2023-04-22T10:36:17.240Z,17.80
2023-04-22T10:37:21.119Z,16.10
2023-04-22T10:38:24.467Z,17.00
2023-04-22T10:39:28.395Z,16.70
2023-04-22T10:40:31.648Z,15.30
2023-04-22T10:43:06.816Z,12.10
2023-04-22T10:44:10.280Z,12.50
2023-04-22T10:45:14.179Z,11.40
2023-04-22T10:46:44.457Z,13.00
2023-04-22T10:47:48.606Z,13.40
2023-04-22T10:48:51.193Z,14.00
2023-04-22T10:50:10.756Z,15.18
2023-04-22T10:51:42.179Z,11.10
2023-04-22T10:52:51.629Z,12.20
2023-04-22T10:53:55.429Z,12.30
2023-04-22T10:55:00.500Z,13.80
2023-04-22T10:56:04.184Z,12.90
2023-04-22T10:57:13.856Z,13.30
2023-04-22T10:58:22.489Z,13.40
2023-04-22T10:59:25.699Z,13.40
2023-04-22T11:00:45.687Z,13.20
2023-04-22T11:01:42.251Z,8.80
2023-04-22T11:02:46.683Z,11.80
2023-04-22T11:03:51.109Z,13.00
2023-04-22T11:05:14.929Z,12.00
2023-04-22T11:07:33.511Z,11.30
2023-04-22T11:08:37.505Z,11.10
2023-04-22T11:09:41.361Z,11.80
2023-04-22T11:10:46.062Z,8.00
2023-04-22T11:13:01.930Z,11.60
2023-04-22T11:14:06.335Z,10.70
2023-04-22T11:15:14.456Z,9.80
2023-04-22T11:16:18.846Z,11.10
2023-04-22T11:17:23.717Z,11.00
2023-04-22T11:18:27.132Z,10.40
2023-04-22T11:19:30.023Z,11.40
2023-04-22T11:20:32.871Z,10.30
2023-04-22T11:21:35.917Z,9.60
2023-04-22T11:22:41.138Z,9.70
2023-04-22T11:23:53.022Z,9.70
2023-04-22T11:24:56.812Z,10.30
2023-04-22T11:26:04.045Z,10.00
2023-04-22T11:27:07.156Z,9.10
2023-04-22T11:28:11.264Z,9.10
2023-04-22T11:29:14.618Z,9.00
2023-04-22T11:31:35.081Z,9.80
2023-04-22T11:32:39.903Z,10.50
2023-04-22T11:33:43.214Z,9.50
2023-04-22T11:36:01.414Z,9.40
2023-04-22T11:37:05.502Z,9.70
2023-04-22T11:38:08.821Z,9.80
2023-04-22T11:39:25.066Z,9.30
2023-04-22T11:40:35.161Z,9.90
2023-04-22T11:41:40.898Z,10.40
2023-04-22T11:42:47.833Z,11.50
2023-04-22T11:43:55.020Z,9.30
2023-04-22T11:44:58.836Z,9.20
2023-04-22T11:47:18.268Z,9.80
2023-04-22T11:48:22.639Z,7.40
2023-04-22T11:49:26.300Z,9.20
2023-04-22T11:50:31.489Z,9.60
2023-04-22T11:51:34.570Z,9.70
2023-04-22T11:52:46.691Z,8.80
2023-04-22T11:53:50.421Z,8.80
2023-04-22T11:54:53.601Z,9.30
2023-04-22T11:55:56.319Z,9.36
2023-04-22T11:57:12.031Z,8.30
2023-04-22T11:58:26.945Z,9.50
2023-04-22T11:59:29.756Z,10.40
2023-04-22T12:02:05.401Z,9.90
2023-04-22T12:03:29.144Z,9.90
2023-04-22T12:04:41.880Z,9.90
2023-04-22T12:06:02.014Z,9.20
2023-04-22T12:07:06.185Z,7.70
2023-04-22T12:08:11.577Z,9.80
2023-04-22T12:10:28.936Z,8.20
2023-04-22T12:11:32.520Z,9.00
2023-04-22T12:12:40.394Z,9.80
2023-04-22T12:13:46.174Z,6.60
2023-04-22T12:14:49.658Z,9.10
2023-04-22T12:15:58.239Z,9.50
2023-04-22T12:17:05.240Z,9.40
2023-04-22T12:18:08.578Z,11.00
2023-04-22T12:19:11.586Z,11.60
2023-04-22T12:21:32.626Z,13.50
2023-04-22T12:22:35.394Z,14.60
2023-04-22T12:23:45.732Z,13.36
2023-04-22T12:26:00.087Z,13.70
2023-04-22T12:27:02.875Z,12.20
2023-04-22T12:28:06.998Z,16.00
2023-04-22T12:29:10.064Z,15.70
2023-04-22T12:30:14.747Z,17.00
2023-04-22T12:31:17.459Z,15.80
2023-04-22T12:32:24.717Z,15.70
2023-04-22T12:33:27.356Z,17.70
2023-04-22T12:35:42.674Z,14.60
2023-04-22T12:36:45.833Z,14.20
2023-04-22T12:37:50.503Z,12.50
2023-04-22T12:39:07.125Z,12.20
2023-04-22T12:40:11.636Z,13.70
2023-04-22T12:41:17.867Z,13.70
2023-04-22T12:42:21.586Z,12.90
2023-04-22T12:44:37.388Z,14.00
2023-04-22T12:45:40.993Z,11.18
2023-04-22T12:46:43.881Z,10.60
2023-04-22T12:49:05.534Z,11.50
2023-04-22T12:50:10.826Z,9.80
2023-04-22T12:51:14.016Z,9.30
2023-04-22T12:52:16.560Z,10.60
2023-04-22T12:53:21.534Z,9.90
2023-04-22T12:54:24.320Z,9.00
2023-04-22T12:55:27.126Z,10.91
2023-04-22T12:56:30.047Z,10.80
2023-04-22T12:58:45.731Z,10.60
2023-04-22T12:59:48.776Z,10.36
2023-04-22T13:00:51.466Z,10.60
2023-04-22T13:01:57.241Z,9.40
2023-04-22T13:03:00.375Z,10.70
2023-04-22T13:04:03.651Z,11.60
2023-04-22T13:05:07.380Z,10.60
2023-04-22T13:06:12.524Z,10.00
2023-04-22T13:07:17.427Z,10.60
2023-04-22T13:08:20.723Z,8.80
2023-04-22T13:09:25.688Z,12.90
2023-04-22T13:10:29.616Z,11.80
2023-04-22T13:11:32.417Z,13.70
2023-04-22T13:12:36.285Z,12.70
2023-04-22T13:13:40.401Z,16.10
2023-04-22T13:14:43.657Z,15.60
2023-04-22T13:15:47.622Z,12.90
2023-04-22T13:16:52.264Z,14.00
2023-04-22T13:17:56.878Z,13.00
2023-04-22T13:18:59.976Z,9.90
2023-04-22T13:20:03.991Z,14.40
2023-04-22T13:21:08.052Z,14.10
2023-04-22T13:22:10.781Z,13.00
2023-04-22T13:23:14.753Z,13.55
2023-04-22T13:24:17.841Z,12.90
2023-04-22T13:25:20.680Z,18.00
2023-04-22T13:26:24.573Z,23.36
2023-04-22T13:27:27.698Z,21.40
2023-04-22T13:28:31.473Z,23.20
2023-04-22T13:29:35.104Z,23.60
2023-04-22T13:30:39.424Z,24.20
2023-04-22T13:31:45.652Z,26.80
2023-04-22T13:32:48.566Z,28.20
2023-04-22T13:33:52.051Z,28.60
2023-04-22T13:34:55.189Z,29.70
2023-04-22T13:35:58.815Z,31.00
2023-04-22T13:37:03.058Z,29.90
2023-04-22T13:38:06.418Z,29.90
2023-04-22T13:39:09.789Z,30.20
2023-04-22T13:40:13.407Z,31.80
2023-04-22T13:41:16.035Z,17.80
2023-04-22T13:42:18.610Z,31.30
2023-04-22T13:43:21.273Z,33.50
2023-04-22T13:44:24.480Z,33.00
2023-04-22T13:45:28.277Z,34.10
2023-04-22T13:46:31.622Z,36.90
2023-04-22T13:47:36.857Z,42.40
2023-04-22T13:48:40.990Z,47.80
2023-04-22T13:49:44.034Z,46.60
2023-04-22T13:50:46.822Z,49.30
2023-04-22T13:51:49.263Z,58.30
2023-04-22T13:52:56.140Z,55.50
2023-04-22T13:54:08.400Z,56.10
2023-04-22T13:55:18.552Z,56.60
2023-04-22T13:56:25.730Z,52.30
2023-04-22T13:57:29.319Z,52.09
2023-04-22T13:58:32.846Z,49.00
2023-04-22T13:59:38.497Z,53.70
2023-04-22T14:00:42.449Z,51.20
2023-04-22T14:01:46.484Z,50.10
2023-04-22T14:02:49.631Z,47.20
2023-04-22T14:03:54.345Z,47.60
2023-04-22T14:04:58.374Z,47.00
2023-04-22T14:06:02.011Z,50.10
2023-04-22T14:07:05.722Z,46.30
2023-04-22T14:08:08.995Z,47.20
2023-04-22T14:09:11.816Z,48.50
2023-04-22T14:10:15.576Z,46.80
2023-04-22T14:11:18.532Z,47.90
2023-04-22T14:12:21.407Z,46.64
2023-04-22T14:13:26.253Z,47.10
2023-04-22T14:14:29.478Z,43.90
2023-04-22T14:15:32.030Z,44.80
2023-04-22T14:16:36.119Z,45.80
2023-04-22T14:17:39.722Z,43.40
2023-04-22T14:19:56.270Z,43.00
2023-04-22T14:21:00.137Z,42.00
2023-04-22T14:22:03.330Z,40.60
2023-04-22T14:23:06.260Z,37.36
2023-04-22T14:24:10.767Z,39.10
2023-04-22T14:25:14.029Z,38.10
2023-04-22T14:26:17.472Z,38.50
2023-04-22T14:27:20.846Z,36.00
2023-04-22T14:28:23.569Z,38.00
2023-04-22T14:29:26.741Z,36.70
2023-04-22T14:30:30.393Z,34.20
2023-04-22T14:31:33.193Z,34.30
2023-04-22T14:32:35.898Z,34.80
2023-04-22T14:33:39.653Z,31.30
2023-04-22T14:34:42.456Z,32.50
2023-04-22T14:35:45.374Z,33.20
2023-04-22T14:36:48.139Z,31.55
2023-04-22T14:37:50.798Z,32.70
2023-04-22T14:38:53.694Z,32.82
2023-04-22T14:40:07.998Z,32.60
2023-04-22T14:41:27.669Z,32.70
2023-04-22T14:42:37.570Z,32.80
2023-04-22T14:43:40.640Z,33.50
2023-04-22T14:44:44.465Z,30.40
2023-04-22T14:45:47.982Z,32.40
2023-04-22T14:51:49.817Z,30.50
2023-04-22T14:52:53.259Z,31.50
2023-04-22T14:53:55.964Z,29.70
2023-04-22T14:55:05.730Z,28.40
2023-04-22T14:56:04.774Z,26.80
2023-04-22T14:57:08.246Z,27.00